Flight Track Log - Related Links

Times and Time Zones

All times are in EDT time to prevent confusion due to time zone crossing. See the SWA1392 flight status page for this flight to view local times or setup timezone preferences in your user account.

Time Position Orientation Groundspeed Altitude Reporting Facility
EDT Latitude Longitude Course Direction KTS MPH feet Rate Location/Type
Sat 08:52:43 PM 33.4333 -112.0333 270° West 157 181 2,200  Level Phoenix TRACON
Sat 08:53:49 PM 33.4333 -112.1000 270° West 204 235 4,100 1,829 Climbing Phoenix TRACON
Sat 08:54:05 PM 33.4369 -112.1178 284° West 201 231 4,700 2,805 Climbing Albuquerque Center
Sat 08:55:06 PM 33.4642 -112.1797 298° West 238 274 7,700 2,829 Climbing Albuquerque Center
Sat 08:56:08 PM 33.5186 -112.1347 35° Northeast 284 327 10,500 2,634 Climbing Albuquerque Center
Sat 08:57:09 PM 33.5369 -112.0272 78° East 331 381 13,100 2,361 Climbing Albuquerque Center
Sat 08:58:10 PM 33.5622 -111.9061 76° East 379 436 15,300 2,262 Climbing Albuquerque Center
Sat 08:59:11 PM 33.5878 -111.7778 77° East 398 458 17,700 2,537 Climbing Albuquerque Center
Sat 09:00:13 PM 33.6206 -111.6133 76° East 424 488 20,500 2,488 Climbing Albuquerque Center
Sat 09:01:14 PM 33.6486 -111.4692 77° East 444 511 22,800 2,115 Climbing Albuquerque Center
Sat 09:02:15 PM 33.6944 -111.3289 69° East 456 525 24,800 1,820 Climbing Albuquerque Center
Sat 09:03:16 PM 33.7550 -111.1936 62° Northeast 462 532 26,500 1,623 Climbing Albuquerque Center
Sat 09:04:17 PM 33.8181 -111.0544 61° Northeast 475 547 28,100 1,630 Climbing Albuquerque Center
Sat 09:06:20 PM 33.9469 -110.7628 62° Northeast 496 571 31,500 1,663 Climbing Albuquerque Center
Sat 09:07:21 PM 34.0197 -110.5986 62° Northeast 493 567 33,200 1,475 Climbing Albuquerque Center
Sat 09:08:22 PM 34.0861 -110.4525 61° Northeast 497 572 34,500 1,082 Climbing Albuquerque Center
Sat 09:09:23 PM 34.1511 -110.3036 62° Northeast 502 578 35,400 787 Climbing Albuquerque Center
Sat 09:10:24 PM 34.2181 -110.1517 62° Northeast 512 589 36,100 787 Climbing Albuquerque Center
Sat 09:11:25 PM 34.2969 -109.9683 62° Northeast 523 602 37,000 439 Climbing Albuquerque Center
Sat 09:12:27 PM 34.3608 -109.8208 62° Northeast 521 600 37,000  Level Albuquerque Center
Sat 09:13:27 PM 34.4247 -109.6733 62° Northeast 519 597 37,000  Level Albuquerque Center
Sat 09:14:28 PM 34.4989 -109.5003 62° Northeast 519 597 37,000  Level Albuquerque Center
Sat 09:15:29 PM 34.5614 -109.3547 62° Northeast 515 593 37,000  Level Albuquerque Center
Sat 09:16:30 PM 34.6242 -109.2069 63° Northeast 515 593 37,000  Level Albuquerque Center
Sat 09:17:32 PM 34.6969 -109.0347 63° Northeast 514 592 37,000 49 Level Albuquerque Center
Sat 09:18:33 PM 34.7592 -108.8883 63° Northeast 512 589 37,100 393 Climbing Albuquerque Center
Sat 09:19:34 PM 34.8325 -108.7142 63° Northeast 517 595 37,800 689 Climbing Albuquerque Center
Sat 09:20:35 PM 34.8961 -108.5619 63° Northeast 524 603 38,500 590 Climbing Albuquerque Center
Sat 09:21:36 PM 34.9569 -108.4128 64° Northeast 519 597 39,000 246 Climbing Albuquerque Center
Sat 09:22:37 PM 35.0278 -108.2433 63° Northeast 509 586 39,000  Level Albuquerque Center
Sat 09:23:38 PM 35.0881 -108.0989 63° Northeast 504 580 39,000  Level Albuquerque Center
Sat 09:24:39 PM 35.1475 -107.9536 63° Northeast 501 577 39,000  Level Albuquerque Center
Sat 09:25:40 PM 35.2167 -107.7833 64° Northeast 502 578 39,000  Level Albuquerque Center
Sat 09:26:41 PM 35.2753 -107.6375 64° Northeast 501 577 39,000  Level Albuquerque Center
Sat 09:27:42 PM 35.3386 -107.4808 64° Northeast 499 574 39,000  Level Albuquerque Center
Sat 09:28:43 PM 35.4031 -107.3225 63° Northeast 499 574 39,000  Level Albuquerque Center
Sat 09:29:44 PM 35.4619 -107.1739 64° Northeast 497 572 39,000  Level Albuquerque Center
Sat 09:30:45 PM 35.5244 -107.0186 64° Northeast 500 575 39,000  Level Albuquerque Center
Sat 09:31:46 PM 35.5853 -106.8653 64° Northeast 500 575 39,000  Level Albuquerque Center
Sat 09:32:47 PM 35.6461 -106.7114 64° Northeast 497 572 39,000  Level Albuquerque Center
Sat 09:33:48 PM 35.7133 -106.5433 64° Northeast 498 573 39,000  Level Albuquerque Center
Sat 09:34:49 PM 35.7706 -106.3969 64° Northeast 498 573 39,000  Level Albuquerque Center
Sat 09:35:49 PM 35.8375 -106.2256 64° Northeast 498 573 39,000  Level Albuquerque Center
Sat 09:36:50 PM 35.8853 -106.0933 66° East 500 575 39,000  Level Albuquerque Center
Sat 09:37:51 PM 35.9447 -105.9403 64° Northeast 497 572 39,000  Level Albuquerque Center
Sat 09:38:52 PM 36.0031 -105.7864 65° Northeast 495 570 39,000  Level Albuquerque Center
Sat 09:39:53 PM 36.0625 -105.6311 65° Northeast 497 572 39,000  Level Albuquerque Center
Sat 09:40:54 PM 36.1308 -105.4517 65° Northeast 496 571 39,000  Level Albuquerque Center
Sat 09:41:55 PM 36.1900 -105.2944 65° Northeast 497 572 39,000  Level Albuquerque Center
Sat 09:42:56 PM 36.2481 -105.1364 65° Northeast 497 572 39,000  Level Albuquerque Center
Sat 09:43:57 PM 36.3086 -104.9744 65° Northeast 505 581 39,000  Level Albuquerque Center
Sat 09:44:58 PM 36.3669 -104.8178 65° Northeast 498 573 39,000  Level Albuquerque Center
Sat 09:45:59 PM 36.4269 -104.6597 65° Northeast 498 573 39,000  Level Albuquerque Center
Sat 09:47:00 PM 36.4842 -104.5006 66° East 500 575 39,000  Level Albuquerque Center
Sat 09:48:01 PM 36.5425 -104.3436 65° Northeast 496 571 39,000  Level Albuquerque Center
Sat 09:49:01 PM 36.5997 -104.1878 65° Northeast 493 567 39,000  Level Albuquerque Center
Sat 09:50:02 PM 36.6564 -104.0311 66° East 492 566 39,000  Level Albuquerque Center
Sat 09:51:03 PM 36.7153 -103.8725 65° Northeast 492 566 39,000  Level Albuquerque Center
Sat 09:52:04 PM 36.7681 -103.7233 66° East 495 570 39,000  Level Albuquerque Center
Sat 09:53:05 PM 36.8308 -103.5483 66° East 496 571 39,000  Level Albuquerque Center
Sat 09:54:06 PM 36.8847 -103.3958 66° East 501 577 39,000  Level Albuquerque Center
Sat 09:55:07 PM 36.9375 -103.2453 66° East 499 574 39,000  Level Albuquerque Center
Sat 09:56:08 PM 36.9997 -103.0678 66° East 501 577 39,000  Level Albuquerque Center
Sat 09:57:08 PM 37.0539 -102.9150 66° East 502 578 39,000  Level Albuquerque Center
Sat 09:58:09 PM 37.1167 -102.7361 66° East 505 581 39,000  Level Albuquerque Center
Sat 09:59:10 PM 37.1689 -102.5858 66° East 497 572 39,000  Level Albuquerque Center
Sat 10:00:11 PM 37.2206 -102.4347 67° East 494 568 39,000  Level Albuquerque Center
Sat 10:01:12 PM 37.2808 -102.2594 67° East 491 565 39,000  Level Albuquerque Center
Sat 10:02:13 PM 37.3344 -102.1022 67° East 489 563 39,000  Level Albuquerque Center
Sat 10:03:14 PM 37.3850 -101.9517 67° East 489 563 39,000  Level Albuquerque Center
Sat 10:03:59 PM 37.4258 -101.8231 68° East 493 567 39,000  Level Kansas City Center
Sat 10:04:58 PM 37.4761 -101.6708 67° East 493 567 39,000  Level Kansas City Center
Sat 10:06:00 PM 37.5272 -101.5183 67° East 493 567 39,000  Level Kansas City Center
Sat 10:07:01 PM 37.5781 -101.3658 67° East 494 568 39,000  Level Kansas City Center
Sat 10:08:02 PM 37.6367 -101.1864 68° East 495 570 39,000  Level Kansas City Center
Sat 10:09:00 PM 37.6847 -101.0403 67° East 496 571 39,000  Level Kansas City Center
Sat 10:10:03 PM 37.7367 -100.8811 68° East 491 565 39,000  Level Kansas City Center
Sat 10:11:04 PM 37.7911 -100.7175 67° East 493 567 39,000  Level Kansas City Center
Sat 10:12:04 PM 37.8492 -100.5356 68° East 496 571 39,000  Level Kansas City Center
Sat 10:13:04 PM 37.8978 -100.3811 68° East 494 568 39,000  Level Kansas City Center
Sat 10:14:05 PM 37.9464 -100.2272 68° East 494 568 39,000  Level Kansas City Center
Sat 10:15:05 PM 38.0025 -100.0472 68° East 492 566 39,000  Level Kansas City Center
Sat 10:16:07 PM 38.0500 -99.8919 69° East 492 566 39,000  Level Kansas City Center
Sat 10:17:06 PM 38.0989 -99.7383 68° East 492 566 39,000  Level Kansas City Center
Sat 10:18:08 PM 38.1558 -99.5592 68° East 491 565 39,000  Level Kansas City Center
Sat 10:19:07 PM 38.1983 -99.4214 69° East 492 566 39,000  Level Kansas City Center
Sat 10:20:09 PM 38.2478 -99.2581 69° East 493 567 39,000  Level Kansas City Center
Sat 10:21:10 PM 38.2989 -99.0956 68° East 493 567 39,000  Level Kansas City Center
Sat 10:22:08 PM 38.3492 -98.9319 69° East 494 568 39,000  Level Kansas City Center
Sat 10:23:11 PM 38.4006 -98.7667 68° East 500 575 39,000  Level Kansas City Center
Sat 10:24:11 PM 38.4494 -98.6022 69° East 496 571 39,000  Level Kansas City Center
Sat 10:25:12 PM 38.4978 -98.4397 69° East 489 563 39,000  Level Kansas City Center
Sat 10:26:12 PM 38.5469 -98.2767 69° East 489 563 39,000  Level Kansas City Center
Sat 10:27:11 PM 38.5950 -98.1153 69° East 485 558 39,000  Level Kansas City Center
Sat 10:28:13 PM 38.6425 -97.9517 70° East 487 560 39,000  Level Kansas City Center
Sat 10:29:14 PM 38.6958 -97.7706 69° East 488 562 39,000  Level Kansas City Center
Sat 10:30:12 PM 38.7414 -97.6142 69° East 490 564 39,000  Level Kansas City Center
Sat 10:31:15 PM 38.7850 -97.4606 70° East 490 564 39,000  Level Kansas City Center
Sat 10:32:13 PM 38.8331 -97.2956 69° East 493 567 39,000  Level Kansas City Center
Sat 10:33:14 PM 38.8800 -97.1306 70° East 492 566 39,000  Level Kansas City Center
Sat 10:34:14 PM 38.9267 -96.9636 70° East 496 571 39,000  Level Kansas City Center
Sat 10:35:17 PM 38.9739 -96.7975 70° East 495 570 39,000  Level Kansas City Center
Sat 10:36:17 PM 39.0258 -96.6114 70° East 493 567 39,000  Level Kansas City Center
Sat 10:37:16 PM 39.0703 -96.4517 70° East 494 568 39,000  Level Kansas City Center
Sat 10:38:16 PM 39.1206 -96.2639 71° East 495 570 39,000  Level Kansas City Center
Sat 10:39:17 PM 39.1647 -96.1039 70° East 495 570 39,000  Level Kansas City Center
Sat 10:40:20 PM 39.2092 -95.9419 70° East 499 574 39,000  Level Kansas City Center
Sat 10:41:18 PM 39.2594 -95.7536 71° East 498 573 39,000  Level Kansas City Center
Sat 10:42:21 PM 39.3031 -95.5922 71° East 495 570 39,000  Level Kansas City Center
Sat 10:43:21 PM 39.3478 -95.4217 71° East 494 568 39,000  Level Kansas City Center
Sat 10:44:22 PM 39.3928 -95.2544 71° East 493 567 39,000  Level Kansas City Center
Sat 10:45:21 PM 39.4394 -95.0783 71° East 491 565 39,000  Level Kansas City Center
Sat 10:46:22 PM 39.4811 -94.9175 71° East 491 565 39,000  Level Kansas City Center
Sat 10:47:22 PM 39.5219 -94.7572 72° East 488 562 39,000  Level Kansas City Center
Sat 10:48:22 PM 39.5636 -94.5981 71° East 488 562 39,000  Level Kansas City Center
Sat 10:49:23 PM 39.6117 -94.4111 71° East 488 562 39,000  Level Kansas City Center
Sat 10:50:24 PM 39.6528 -94.2506 72° East 489 563 39,000  Level Kansas City Center
Sat 10:51:24 PM 39.6947 -94.0897 71° East 491 565 39,000  Level Kansas City Center
Sat 10:52:26 PM 39.7614 -93.9103 64° Northeast 493 567 39,000  Level Kansas City Center
Sat 10:53:26 PM 39.8097 -93.7689 66° East 499 574 39,000  Level Kansas City Center
Sat 10:54:27 PM 39.8658 -93.6042 66° East 501 577 39,000  Level Kansas City Center
Sat 10:55:27 PM 39.9228 -93.4408 66° East 501 577 39,000  Level Kansas City Center
Sat 10:56:28 PM 39.9786 -93.2758 66° East 504 580 39,000  Level Kansas City Center
Sat 10:57:29 PM 40.0483 -93.0817 65° Northeast 497 572 39,000  Level Kansas City Center
Sat 10:58:27 PM 40.0964 -92.9375 66° East 495 570 39,000  Level Kansas City Center
Sat 10:59:29 PM 40.1581 -92.7558 66° East 492 566 39,000  Level Kansas City Center
Sat 11:00:30 PM 40.2106 -92.6000 66° East 489 563 39,000  Level Kansas City Center
Sat 11:01:28 PM 40.2644 -92.4444 66° East 489 563 39,000  Level Kansas City Center
Sat 11:02:30 PM 40.3189 -92.2797 67° East 501 577 39,000  Level Kansas City Center
Sat 11:03:32 PM 40.3736 -92.1158 66° East 499 574 39,000  Level Kansas City Center
Sat 11:04:32 PM 40.4278 -91.9500 67° East 499 574 39,000  Level Kansas City Center
Sat 11:05:33 PM 40.4942 -91.7478 67° East 505 581 39,000  Level Kansas City Center
Sat 11:06:32 PM 40.5489 -91.5806 67° East 503 579 39,000  Level Kansas City Center
Sat 11:06:51 PM 40.5597 -91.5469 67° East 504 580 39,000  Level Chicago Center
Sat 11:07:52 PM 40.6142 -91.3794 67° East 503 579 39,000  Level Chicago Center
Sat 11:08:52 PM 40.6767 -91.1864 67° East 500 575 39,000  Level Chicago Center
Sat 11:09:52 PM 40.7300 -91.0186 67° East 497 572 39,000  Level Chicago Center
Sat 11:10:53 PM 40.7833 -90.8503 67° East 497 572 39,000  Level Chicago Center
Sat 11:11:53 PM 40.8367 -90.6806 67° East 499 574 39,000 -500 Level Chicago Center
Sat 11:12:53 PM 40.8897 -90.5119 67° East 495 570 38,000 -942 Descending Chicago Center
Sat 11:13:54 PM 40.9428 -90.3433 67° East 494 568 37,100 -1,041 Descending Chicago Center
Sat 11:14:54 PM 40.9917 -90.1847 68° East 490 564 35,900 -2,826 Descending Chicago Center
Sat 11:15:55 PM 41.0481 -90.0058 67° East 491 565 31,400 -4,017 Descending Chicago Center
Sat 11:16:55 PM 41.1006 -89.8328 68° East 499 574 27,800 -3,350 Descending Chicago Center
Sat 11:17:55 PM 41.1494 -89.6642 69° East 490 564 24,700 -2,975 Descending Chicago Center
Sat 11:18:56 PM 41.1978 -89.5042 68° East 471 542 21,800 -2,826 Descending Chicago Center
Sat 11:19:56 PM 41.2433 -89.3503 68° East 450 518 19,000 -2,579 Descending Chicago Center
Sat 11:20:57 PM 41.2886 -89.2036 68° East 430 495 16,600 -2,281 Descending Chicago Center
Sat 11:21:57 PM 41.3231 -89.0831 69° East 410 472 14,400 -2,350 Descending Chicago Center
Sat 11:22:57 PM 41.3628 -88.9497 68° East 391 450 11,900 -2,083 Descending Chicago Center
Sat 11:23:58 PM 41.4006 -88.8222 68° East 373 429 10,200 -1,190 Descending Chicago Center
Sat 11:24:58 PM 41.4317 -88.7133 69° East 315 362 9,500 -1,050 Descending Chicago Center
Sat 11:25:58 PM 41.4606 -88.6167 68° East 283 326 8,100 -1,686 Descending Chicago Center
Sat 11:26:59 PM 41.4875 -88.5231 69° East 273 314 6,100 -1,091 Descending Chicago Center
Sat 11:27:59 PM 41.5128 -88.4089 73° East 269 310 5,900 -100 Descending Chicago Center
Sat 11:28:59 PM 41.5344 -88.3144 73° East 268 308 5,900  Level Chicago Center
Sat 11:30:00 PM 41.5556 -88.2203 73° East 266 306 5,900 -298 Level Chicago Center
Sat 11:31:00 PM 41.5886 -88.1325 63° Northeast 272 313 5,300 -650 Descending Chicago Center
Sat 11:32:00 PM 41.6183 -88.0650 59° Northeast 266 306 4,600 -744 Descending Chicago Center
Sat 11:33:01 PM 41.6539 -87.9825 60° Northeast 260 299 3,800 -843 Descending Chicago Center
Sat 11:34:01 PM 41.6897 -87.8983 60° Northeast 233 268 2,900 -750 Descending Chicago Center
Sat 11:35:01 PM 41.7147 -87.8419 59° Northeast 202 232 2,300 -456 Descending Chicago Center
Sat 11:35:20 PM 41.7167 -87.8333 73° East 154 177 2,300 -532 Level Chicago TRACON
Sat 11:36:20 PM 41.7500 -87.8000 37° Northeast 127 146 1,600 -700 Descending Chicago TRACON

Login

Don't have an account? Register now (free) for customized features, flight alerts, and more!